Hibbing, MN

1:55 PM CDT on June 26, 2017 (GMT -0500)
Chisholm-hibbing | | Change Station

Elev 1352 ft 47.39 °N, 92.84 °W | Updated 1 hour ago

Mostly Cloudy
Mostly Cloudy
64 °F
Feels Like 64 °F
N
17
Wind Variable Wind from NW
Gusts 26 mph

Today
High -- | Low -- °F
--% Chance of Precip.
Yesterday
High -- | Low -- °F
Precip. -- in
Pressure 30.14 in
Visibility 10.0 miles
Clouds Few 5000 ft
Scattered Clouds 6000 ft
Scattered Clouds 7500 ft
Dew Point 45 °F
Humidity 50%
Rainfall 0.00 in
Snow Depth Not available.
5:16 AM 9:12 PM
Waxing Crescent, 10% visible
METAR KHIB 261753Z AUTO 32015G23KT 10SM FEW050 SCT060 SCT075 18/07 A3011 RMK AO2 SLP204 T01780072 10183 20072 58010
Pressure 30.14 in
Visibility 10.0 miles
Clouds Few 5000 ft
Scattered Clouds 6000 ft
Scattered Clouds 7500 ft
Dew Point 45 °F
Humidity 50%
Rainfall 0.00 in
Snow Depth Not available.
5:16 AM 9:12 PM
Waxing Crescent, 10% visible
METAR KHIB 261753Z AUTO 32015G23KT 10SM FEW050 SCT060 SCT075 18/07 A3011 RMK AO2 SLP204 T01780072 10183 20072 58010

Get Severe Weather Alerts

Thanks for signing up!

Be on the lookout for a verification email in your inbox.

You'll start receiving the daily forecast at 6 AM.

×

10-Day Weather Forecast

Almanac

Astronomy

Jun. 26, 2017 Rise Set
Actual Time
Civil Twilight
Nautical Twilight
Astronomical Twilight
Moon
Length of Visible Light
Length of Day
Tomorrow will be .
, % of the Moon is Illuminated

Today's Extremes

State Highs State Lows

Community

WunderPhotos

Category 6

Welcome to Category 6. This is the collective home for Weather Underground's featured writeups by Dr. Jeff Masters (right), Bob Henson (left), Chris Burt, and other regular contributors.

Nearby

Air Quality

  Air Quality AQ Index Pollutant
Not available.

Snow Depth

Station Depth Elevation

Earthquake Activity

City Distance Mag. Time & Date
Minimum magnitude displayed is 2.5.

Coastal Water Temperatures

Place Temperature

Stations

Nearby Weather Stations

Station Location Temp. Windchill Dew Point Humidity Wind Precip. Elev Updated Type
                   

Watches & Warnings

There are currently no watches in effect.